メインページ
METAR-TAF:

METAR-TAF

空港 :

サンフアン, プエルトリコ, アメリカ合衆国

ルイス・ムニョス・マリン国際空港

緯度: 18-27N, 経度: 066-00W, 海抜: 3m

現時点の気象観測

当レポートは1時間31分前の09:35(UTC)に作成
気温 26°C
湿度 94%
気圧 987 hPa
視程: 0.8km
高度900ftの千切れ雲あり
高度1600ftの曇り
小雨, 霧

METAR: TJSJ 200935Z AUTO 1/2SM -RA FG BKN009 OVC016 26/25 A2914 RMK AO2 PK WND 02079/0919 PRESFR P0040 T02560250 TSNO

時間: 07:06 (11:06 UTC)

予報

当レポートは5時間46分前の05:20(UTC)に作成
予報は20日の 06時(UTC)から 21日の 06時(UTC)まで有効
北/北東の風 30kt、最大50ktの突風を伴う
視程: 8.0km
高度1500ftの雲は散在している
高度2500ftの千切れ雲あり, 積乱雲.
激しい雷雨, 雨
20日の 0800時(UTC)から
北/北東の風 60kt、最大90ktの突風を伴う
視程: 1.6km
高度1500ftの雲は散在している
高度2500ftの曇り, 積乱雲.
激しい雷雨, 大雨
20日の 1600時(UTC)から
東/南東の風 50kt、最大70ktの突風を伴う
視程: 1.6km
高度1500ftの雲は散在している
高度2500ftの曇り, 積乱雲.
激しい雷雨, 大雨
20日の 1900時(UTC)から
の風 20kt、最大40ktの突風を伴う
視程: 4.8km
高度1500ftの雲は散在している
高度2500ftの千切れ雲あり
にわか雨

TAF: TJSJ 200520Z 2006/2106 02030G50KT 5SM TSRA SCT015 BKN025CB FM200800 02060G90KT 1SM +TSRA SCT015 OVC025CB FM201600 12050G70KT 1SM +TSRA SCT015 OVC025CB FM201900 17020G40KT 3SM SHRA SCT015 BKN025

4,000以上の空港の気象観測と天気予報(METAR報とTAF報)

利用可能な観測所は地図上に黄色い丸と赤い丸で示す。

丸の上にカーソルを重ねると観測所名を参照できる。

次にクリックすると気象観測と天気予報を参照できる。

マップの切り替え:黒色「×」印の緑ボタンをクリックして拡大、「-」印の緑ボタンをクリックして縮小、緑色の三角印をクリックして隣りの地図に切り替え


METAR-TAF: